Time;durP1;ratioP1;P1;durP2;ratioP2;P2;SDS_P1;SDS_P2;PMS_P1;PMS_P2;Temp;Humidity;BMP_temperature;BMP_pressure;BME280_temperature;BME280_humidity;BME280_pressure;Samples;Min_cycle;Max_cycle;Signal;HPM_P1;HPM_P2
2022/01/27 00:05:16;;;;;;;29.30;12.95;;;6.50;99.90;;;;;;4974815;28;20053;-76
2022/01/27 00:07:42;;;;;;;27.15;12.50;;;6.40;99.90;;;;;;4989610;28;20373;-76
2022/01/27 00:10:31;;;;;;;30.42;13.38;;;6.40;99.90;;;;;;4973335;28;20041;-75
2022/01/27 00:12:56;;;;;;;29.13;13.25;;;6.40;99.90;;;;;;4973226;28;20437;-75
2022/01/27 00:15:29;;;;;;;29.20;13.05;;;6.40;99.90;;;;;;4989364;28;20058;-76
2022/01/27 00:18:02;;;;;;;32.30;13.23;;;6.40;99.90;;;;;;4974621;28;20516;-75
2022/01/27 00:20:28;;;;;;;31.13;14.00;;;6.50;99.90;;;;;;4989567;28;20122;-75
2022/01/27 00:22:54;;;;;;;29.02;14.32;;;6.50;99.90;;;;;;4972983;28;20710;-76
2022/01/27 00:25:20;;;;;;;27.80;13.20;;;6.50;99.90;;;;;;4972691;28;20089;-76
2022/01/27 00:27:46;;;;;;;29.52;13.88;;;6.30;99.90;;;;;;4972992;28;20031;-77
2022/01/27 00:30:12;;;;;;;29.77;13.60;;;6.40;99.90;;;;;;4974347;28;20444;-75
2022/01/27 00:32:37;;;;;;;30.10;14.30;;;6.40;99.90;;;;;;4974151;28;20085;-75
2022/01/27 00:35:05;;;;;;;33.53;14.70;;;6.40;99.90;;;;;;4973912;28;20053;-75
2022/01/27 00:37:30;;;;;;;29.75;13.60;;;6.40;99.90;;;;;;4972862;28;20093;-76
2022/01/27 00:39:56;;;;;;;31.48;14.68;;;6.30;99.90;;;;;;4974121;28;20456;-75
2022/01/27 00:42:23;;;;;;;30.83;14.23;;;6.30;99.90;;;;;;4972676;28;20034;-75
2022/01/27 00:44:49;;;;;;;35.47;16.13;;;6.30;99.90;;;;;;4989267;28;20089;-76
2022/01/27 00:47:15;;;;;;;31.38;14.70;;;6.30;99.90;;;;;;4973654;28;20114;-75
2022/01/27 00:49:41;;;;;;;31.58;15.27;;;6.30;99.90;;;;;;4973588;28;20038;-75
2022/01/27 00:52:10;;;;;;;38.92;16.52;;;6.30;99.90;;;;;;4973026;28;20174;-74
2022/01/27 00:54:36;;;;;;;34.35;15.13;;;6.20;99.90;;;;;;4972352;28;20042;-75
2022/01/27 01:05:11;;;;;;;37.42;15.25;;;6.40;99.90;;;;;;4973596;28;20034;-75
2022/01/27 01:07:41;;;;;;;31.50;14.70;;;6.30;99.90;;;;;;4973725;28;20031;-75
2022/01/27 01:11:03;;;;;;;33.28;15.55;;;6.40;99.90;;;;;;4973599;28;20054;-75
2022/01/27 01:14:09;;;;;;;37.83;16.73;;;6.30;99.90;;;;;;4973524;28;20050;-75
2022/01/27 01:16:06;;;;;;;37.25;16.33;;;6.30;99.90;;;;;;4973427;28;20045;-75
2022/01/27 01:19:14;;;;;;;32.33;15.77;;;6.40;99.90;;;;;;4973252;28;20105;-75
2022/01/27 01:21:45;;;;;;;34.30;15.27;;;6.40;99.90;;;;;;4972771;28;20093;-75
2022/01/27 01:30:07;;;;;;;38.90;16.85;;;6.30;99.90;;;;;;4988448;28;20097;-76
2022/01/27 01:32:56;;;;;;;34.88;16.80;;;6.30;99.90;;;;;;4972011;28;20089;-75
2022/01/27 01:35:28;;;;;;;32.63;16.40;;;6.30;99.90;;;;;;4972601;28;20046;-75
2022/01/27 01:37:57;;;;;;;36.97;16.88;;;6.20;99.90;;;;;;4972970;28;20037;-74
2022/01/27 01:40:24;;;;;;;35.25;16.20;;;6.30;99.90;;;;;;4972115;28;20081;-75
2022/01/27 01:42:49;;;;;;;37.70;18.10;;;6.30;99.90;;;;;;4972918;28;20027;-76
2022/01/27 01:45:18;;;;;;;38.58;16.23;;;6.20;99.90;;;;;;4972422;28;20464;-75
2022/01/27 01:47:46;;;;;;;34.67;17.10;;;6.20;99.90;;;;;;4972060;28;20039;-75
2022/01/27 01:50:13;;;;;;;38.97;16.90;;;6.30;99.90;;;;;;4972892;28;20480;-75
2022/01/27 01:52:40;;;;;;;35.30;17.08;;;6.30;99.90;;;;;;4973087;28;20027;-75
2022/01/27 01:55:08;;;;;;;41.60;17.60;;;6.10;99.90;;;;;;4972750;28;20031;-76
2022/01/27 01:57:34;;;;;;;38.40;17.70;;;6.20;99.90;;;;;;4972706;28;20022;-75
2022/01/27 02:00:00;;;;;;;37.00;17.33;;;6.30;99.90;;;;;;4973355;28;20027;-75
2022/01/27 02:02:26;;;;;;;49.22;18.48;;;6.30;99.90;;;;;;4972763;28;20057;-75
2022/01/27 02:04:54;;;;;;;38.15;17.70;;;6.20;99.90;;;;;;4973137;28;20049;-74
2022/01/27 02:07:33;;;;;;;34.80;16.55;;;6.20;99.90;;;;;;4975970;28;20038;-75
2022/01/27 02:18:27;;;;;;;43.17;18.20;;;6.20;99.90;;;;;;4976307;28;20084;-75
2022/01/27 02:20:53;;;;;;;46.63;20.85;;;6.20;99.90;;;;;;4975634;28;20026;-75
2022/01/27 02:23:19;;;;;;;41.63;18.05;;;6.10;99.90;;;;;;4976078;28;20096;-75
2022/01/27 02:25:45;;;;;;;42.08;19.48;;;6.10;99.90;;;;;;4991545;28;20381;-75
2022/01/27 02:28:10;;;;;;;43.80;18.77;;;6.10;99.90;;;;;;4975224;28;20361;-75
2022/01/27 02:30:36;;;;;;;50.22;20.58;;;6.10;99.90;;;;;;4976273;28;20027;-75
2022/01/27 02:33:02;;;;;;;45.10;19.80;;;6.20;99.90;;;;;;4976291;28;20468;-74
2022/01/27 02:35:32;;;;;;;48.67;19.48;;;6.00;99.90;;;;;;4980941;28;20030;-75
2022/01/27 02:37:58;;;;;;;44.28;21.42;;;6.10;99.90;;;;;;4995450;28;20022;-74
2022/01/27 02:40:26;;;;;;;52.15;20.85;;;6.10;99.90;;;;;;4994399;28;20105;-74
2022/01/27 02:42:53;;;;;;;49.50;22.02;;;6.10;99.90;;;;;;4995561;28;20026;-74
2022/01/27 02:45:45;;;;;;;44.30;20.80;;;6.00;99.90;;;;;;4995804;28;20026;-74
2022/01/27 02:48:12;;;;;;;46.90;21.00;;;6.00;99.90;;;;;;5014819;28;20037;-74
2022/01/27 02:50:38;;;;;;;47.40;21.92;;;6.20;99.90;;;;;;5014772;28;20033;-75
2022/01/27 02:53:06;;;;;;;51.22;21.85;;;6.00;99.90;;;;;;5000630;28;20141;-74
2022/01/27 02:55:32;;;;;;;48.50;22.05;;;6.10;99.90;;;;;;4995103;28;20113;-74
2022/01/27 02:57:58;;;;;;;54.92;23.17;;;6.10;99.90;;;;;;4995156;28;20114;-75
2022/01/27 03:00:24;;;;;;;59.22;25.17;;;6.20;99.80;;;;;;4994953;28;20076;-75
2022/01/27 03:02:50;;;;;;;61.53;25.40;;;6.10;99.60;;;;;;4995392;28;20388;-74
2022/01/27 03:05:15;;;;;;;53.17;23.80;;;6.10;99.40;;;;;;4995042;28;20081;-75
2022/01/27 03:07:41;;;;;;;61.33;26.08;;;6.00;99.60;;;;;;5001673;28;20041;-75
2022/01/27 03:10:07;;;;;;;62.75;24.88;;;6.10;99.50;;;;;;4995042;28;20054;-75
2022/01/27 03:12:37;;;;;;;60.95;25.33;;;6.20;99.60;;;;;;4994827;28;20444;-75
2022/01/27 03:15:03;;;;;;;62.53;25.27;;;6.20;99.40;;;;;;4995273;28;20019;-74
2022/01/27 03:17:29;;;;;;;72.93;28.48;;;6.10;99.30;;;;;;4994479;28;20052;-75
2022/01/27 03:19:55;;;;;;;64.70;27.45;;;6.10;99.30;;;;;;4994657;28;20066;-75
2022/01/27 03:22:20;;;;;;;71.45;27.50;;;6.00;99.30;;;;;;4994629;28;20030;-75
2022/01/27 03:24:46;;;;;;;64.55;27.88;;;6.00;99.50;;;;;;4994139;28;20038;-75
2022/01/27 03:27:22;;;;;;;62.92;25.92;;;6.10;99.50;;;;;;4994812;28;20375;-75
2022/01/27 03:29:47;;;;;;;57.72;25.48;;;6.00;99.70;;;;;;4994725;28;20081;-75
2022/01/27 03:32:13;;;;;;;59.92;25.60;;;6.00;99.40;;;;;;4993485;28;20162;-75
2022/01/27 03:34:39;;;;;;;56.35;24.48;;;6.10;99.50;;;;;;5009586;28;20050;-76
2022/01/27 03:37:05;;;;;;;61.25;25.58;;;6.00;99.40;;;;;;4994505;28;20031;-75
2022/01/27 03:39:30;;;;;;;65.78;25.08;;;6.10;99.40;;;;;;4971783;28;20472;-75
2022/01/27 03:41:57;;;;;;;53.83;24.50;;;6.00;99.40;;;;;;4955027;28;20374;-76
2022/01/27 03:44:23;;;;;;;54.47;24.80;;;6.00;99.40;;;;;;4955527;28;20039;-75
2022/01/27 03:46:52;;;;;;;55.50;24.17;;;5.90;99.40;;;;;;4967433;28;20069;-74
2022/01/27 03:49:18;;;;;;;55.00;23.95;;;6.00;99.50;;;;;;4974887;28;20038;-75
2022/01/27 03:51:45;;;;;;;62.55;24.17;;;6.00;99.30;;;;;;4974702;28;20450;-75
2022/01/27 03:54:11;;;;;;;58.47;23.67;;;6.00;99.20;;;;;;4975053;28;20027;-75
2022/01/27 03:56:37;;;;;;;54.25;22.90;;;5.90;99.20;;;;;;4974627;28;20031;-75
2022/01/27 03:59:03;;;;;;;53.78;23.08;;;5.90;99.30;;;;;;4974517;28;20057;-75
2022/01/27 04:01:30;;;;;;;63.83;24.55;;;5.90;99.30;;;;;;4974556;28;20031;-75
2022/01/27 04:03:57;;;;;;;56.15;24.27;;;5.80;99.40;;;;;;4974450;28;20042;-75
2022/01/27 04:06:32;;;;;;;56.63;22.98;;;5.80;99.40;;;;;;4974461;28;20038;-75
2022/01/27 04:08:58;;;;;;;56.75;22.98;;;5.90;99.40;;;;;;4974864;28;20339;-75
2022/01/27 04:11:23;;;;;;;49.35;22.15;;;5.80;99.20;;;;;;4956717;28;20517;-76
2022/01/27 04:13:49;;;;;;;54.78;23.00;;;5.90;99.60;;;;;;4967070;28;20054;-75
2022/01/27 04:16:14;;;;;;;53.75;22.55;;;5.80;99.60;;;;;;4974317;28;20038;-75
2022/01/27 04:18:40;;;;;;;59.30;24.13;;;6.00;99.40;;;;;;4989345;28;20023;-74
2022/01/27 04:21:05;;;;;;;54.33;22.40;;;5.90;99.20;;;;;;4974666;28;20054;-75
2022/01/27 04:23:31;;;;;;;58.45;24.85;;;5.80;99.30;;;;;;4974397;28;20074;-76
2022/01/27 04:25:57;;;;;;;58.38;25.30;;;5.90;99.30;;;;;;4972779;28;20047;-75
2022/01/27 04:28:28;;;;;;;61.15;25.23;;;5.80;99.20;;;;;;4988599;28;20148;-76
2022/01/27 04:30:56;;;;;;;59.25;24.80;;;5.80;99.30;;;;;;4973925;28;20110;-76
2022/01/27 04:33:28;;;;;;;54.42;24.25;;;5.80;99.20;;;;;;4972803;28;20039;-75
2022/01/27 04:35:57;;;;;;;55.45;23.80;;;5.80;99.00;;;;;;4974198;28;20038;-75
2022/01/27 04:38:51;;;;;;;51.20;23.45;;;5.90;99.10;;;;;;4973771;28;20472;-75
2022/01/27 04:41:19;;;;;;;52.83;23.52;;;5.80;98.80;;;;;;4973821;28;20038;-75
2022/01/27 04:44:01;;;;;;;56.70;25.17;;;5.70;98.90;;;;;;4973769;28;20034;-74
2022/01/27 04:46:35;;;;;;;60.67;25.98;;;5.60;99.00;;;;;;4973609;28;20093;-75
2022/01/27 04:49:03;;;;;;;57.92;26.00;;;5.60;99.00;;;;;;4973568;28;20029;-75
2022/01/27 04:51:29;;;;;;;60.70;26.08;;;5.70;99.10;;;;;;4973785;28;20184;-75
2022/01/27 04:54:11;;;;;;;62.55;26.05;;;5.70;99.20;;;;;;4973978;28;20102;-75
2022/01/27 04:56:39;;;;;;;58.35;23.98;;;5.80;98.90;;;;;;4973520;28;20042;-76
2022/01/27 04:59:17;;;;;;;60.10;24.75;;;5.80;98.70;;;;;;4972529;28;20073;-74
2022/01/27 05:01:50;;;;;;;59.03;24.98;;;5.70;98.80;;;;;;4973371;28;20126;-75
2022/01/27 05:04:18;;;;;;;55.72;24.42;;;5.80;98.90;;;;;;4973224;28;20030;-76
2022/01/27 05:06:44;;;;;;;62.17;24.50;;;5.80;98.80;;;;;;4973412;28;20066;-77
2022/01/27 05:09:10;;;;;;;56.30;24.00;;;5.80;98.80;;;;;;4972939;28;20047;-76
2022/01/27 05:11:43;;;;;;;55.28;23.85;;;5.80;98.70;;;;;;4973516;28;20356;-76
2022/01/27 05:14:19;;;;;;;61.45;25.90;;;5.80;98.70;;;;;;4973243;28;20026;-75
2022/01/27 05:16:46;;;;;;;60.65;25.70;;;5.80;98.60;;;;;;4973165;28;20070;-74
2022/01/27 05:19:11;;;;;;;56.10;25.35;;;5.90;98.80;;;;;;4973229;28;20065;-75
2022/01/27 05:21:37;;;;;;;60.22;24.77;;;5.80;98.60;;;;;;4973212;28;20046;-75
2022/01/27 05:24:04;;;;;;;59.53;25.92;;;5.80;98.70;;;;;;4973308;28;20023;-76
2022/01/27 05:26:30;;;;;;;56.90;25.48;;;5.80;98.70;;;;;;4973211;28;20452;-75
2022/01/27 05:28:56;;;;;;;59.72;25.38;;;5.80;98.60;;;;;;4973187;28;20037;-75
2022/01/27 05:31:21;;;;;;;64.72;25.60;;;5.90;98.60;;;;;;4973276;28;20113;-74
2022/01/27 05:33:47;;;;;;;55.08;24.75;;;5.90;98.60;;;;;;4972922;28;20122;-75
2022/01/27 05:36:13;;;;;;;58.85;24.45;;;5.80;98.50;;;;;;4988483;28;20420;-76
2022/01/27 05:38:39;;;;;;;58.10;25.63;;;5.90;98.70;;;;;;4973131;28;20106;-75
2022/01/27 05:41:05;;;;;;;55.00;23.98;;;5.80;98.50;;;;;;4975923;28;20042;-76
2022/01/27 05:43:31;;;;;;;54.78;24.25;;;5.90;98.60;;;;;;4977314;28;20027;-76
2022/01/27 05:45:57;;;;;;;56.35;23.77;;;5.90;98.60;;;;;;4992156;28;20027;-76
2022/01/27 05:48:23;;;;;;;56.22;23.50;;;6.00;98.50;;;;;;4976804;28;20406;-75
2022/01/27 05:50:48;;;;;;;64.80;25.50;;;6.00;98.40;;;;;;4977322;28;20022;-76
2022/01/27 05:53:14;;;;;;;56.55;23.95;;;6.00;98.50;;;;;;4976858;28;20030;-76
2022/01/27 05:55:40;;;;;;;57.95;25.15;;;6.00;98.40;;;;;;4976651;28;20122;-74
2022/01/27 05:58:06;;;;;;;54.10;25.52;;;6.00;98.50;;;;;;4977031;28;20130;-74
2022/01/27 06:00:31;;;;;;;57.28;24.83;;;6.00;98.30;;;;;;4976668;28;20103;-75
2022/01/27 06:02:58;;;;;;;58.90;24.60;;;6.00;98.40;;;;;;4977166;28;20042;-75
2022/01/27 06:05:24;;;;;;;56.33;24.80;;;6.10;98.40;;;;;;4976513;28;20066;-75
2022/01/27 06:07:49;;;;;;;55.30;25.65;;;6.10;98.30;;;;;;4976366;28;20122;-76
2022/01/27 06:10:15;;;;;;;53.25;25.23;;;5.90;98.30;;;;;;4976537;28;20045;-75
2022/01/27 06:12:52;;;;;;;51.70;23.38;;;5.90;98.40;;;;;;4976171;28;20035;-75
2022/01/27 06:15:19;;;;;;;62.47;24.90;;;6.00;98.40;;;;;;4976774;28;20023;-75
2022/01/27 06:17:45;;;;;;;54.97;24.02;;;6.00;98.40;;;;;;4976612;28;20031;-75
2022/01/27 06:20:11;;;;;;;50.58;23.05;;;6.00;98.40;;;;;;4976363;28;20397;-75
2022/01/27 06:22:37;;;;;;;59.92;26.20;;;6.10;98.40;;;;;;4976342;28;20472;-76
2022/01/27 06:25:03;;;;;;;56.83;24.38;;;6.10;98.40;;;;;;4976101;28;20039;-76
2022/01/27 06:27:29;;;;;;;57.55;25.80;;;6.10;98.30;;;;;;4976068;28;20038;-75
2022/01/27 06:29:55;;;;;;;61.80;25.05;;;6.00;98.30;;;;;;4976852;28;20640;-74
2022/01/27 06:32:20;;;;;;;55.88;24.05;;;6.10;98.40;;;;;;4965618;28;20496;-74
2022/01/27 06:34:46;;;;;;;55.35;25.40;;;6.10;98.30;;;;;;4956862;28;20066;-75
2022/01/27 06:37:12;;;;;;;56.08;26.30;;;6.00;98.40;;;;;;4978912;28;20380;-76
2022/01/27 06:39:38;;;;;;;63.80;26.25;;;6.10;98.40;;;;;;4975761;28;20031;-73
2022/01/27 06:42:05;;;;;;;59.95;23.95;;;6.10;98.50;;;;;;4976667;28;20031;-76
2022/01/27 06:44:30;;;;;;;56.45;25.17;;;6.10;98.40;;;;;;4971465;28;20031;-75
2022/01/27 06:46:56;;;;;;;51.85;24.90;;;6.00;98.50;;;;;;5000611;28;20425;-76
2022/01/27 06:49:21;;;;;;;52.42;25.55;;;6.10;98.70;;;;;;4975740;28;20505;-74
2022/01/27 06:51:47;;;;;;;59.55;25.52;;;6.10;98.80;;;;;;4975080;28;20062;-74
2022/01/27 06:54:15;;;;;;;55.60;25.02;;;6.20;98.80;;;;;;4976184;28;20031;-76
2022/01/27 06:56:41;;;;;;;60.88;25.75;;;6.20;99.00;;;;;;4975621;28;20499;-75
2022/01/27 06:59:06;;;;;;;65.70;26.63;;;6.10;98.90;;;;;;4974638;28;20042;-75
2022/01/27 07:01:32;;;;;;;57.15;24.45;;;6.10;99.10;;;;;;4975591;28;20357;-75
2022/01/27 07:03:57;;;;;;;57.83;24.52;;;6.10;99.30;;;;;;4974342;28;20046;-76
2022/01/27 07:06:23;;;;;;;61.72;24.95;;;6.10;99.40;;;;;;4974611;28;20125;-77
2022/01/27 07:08:48;;;;;;;52.95;25.05;;;6.00;99.50;;;;;;4975598;28;20046;-78
2022/01/27 07:11:14;;;;;;;59.67;24.02;;;6.10;99.60;;;;;;4975446;28;20030;-77
2022/01/27 07:13:40;;;;;;;58.35;25.63;;;6.20;99.70;;;;;;4974506;28;20409;-76
2022/01/27 07:16:09;;;;;;;60.92;25.45;;;6.20;99.70;;;;;;4976020;28;20353;-75
2022/01/27 07:18:35;;;;;;;55.85;23.80;;;6.20;99.90;;;;;;4977967;28;20369;-87
2022/01/27 07:21:00;;;;;;;57.90;23.65;;;6.10;99.90;;;;;;4984802;28;20023;-86
2022/01/27 07:23:26;;;;;;;56.97;24.98;;;6.10;99.90;;;;;;4981475;28;20368;-87
2022/01/27 07:25:52;;;;;;;54.28;24.25;;;6.10;99.90;;;;;;4981010;28;20541;-85
2022/01/27 07:28:17;;;;;;;59.78;25.23;;;6.20;99.90;;;;;;4977951;28;20057;-85
2022/01/27 07:30:43;;;;;;;54.45;23.60;;;6.20;99.90;;;;;;4978760;28;20031;-87
2022/01/27 07:33:08;;;;;;;50.88;23.70;;;6.20;99.90;;;;;;4977941;28;20026;-89
2022/01/27 07:35:34;;;;;;;56.20;24.70;;;6.20;99.90;;;;;;4978715;28;20114;-84
2022/01/27 07:37:59;;;;;;;53.20;23.50;;;6.30;99.90;;;;;;4978122;28;20097;-84
2022/01/27 07:40:25;;;;;;;52.35;23.58;;;6.40;99.90;;;;;;4978705;28;20134;-89
2022/01/27 07:42:51;;;;;;;51.63;23.92;;;6.30;99.90;;;;;;4978258;28;20030;-91
2022/01/27 07:45:16;;;;;;;53.28;22.70;;;6.30;99.90;;;;;;4982665;28;20042;-90
2022/01/27 07:47:42;;;;;;;50.92;22.08;;;6.30;99.90;;;;;;4979890;28;20456;-88
2022/01/27 07:50:08;;;;;;;54.97;24.77;;;6.30;99.90;;;;;;4978495;28;20031;-90
2022/01/27 07:52:34;;;;;;;52.75;23.85;;;6.30;99.90;;;;;;4978872;28;20027;-90
2022/01/27 07:54:59;;;;;;;54.03;23.40;;;6.30;99.90;;;;;;4976552;28;20165;-81
2022/01/27 07:57:25;;;;;;;53.38;22.23;;;6.30;99.90;;;;;;4977189;28;20042;-82
2022/01/27 07:59:50;;;;;;;51.55;22.50;;;6.30;99.90;;;;;;4976421;28;20243;-81
2022/01/27 08:02:16;;;;;;;50.13;21.17;;;6.40;99.90;;;;;;4975162;28;20023;-82
2022/01/27 08:04:42;;;;;;;49.40;21.35;;;6.40;99.90;;;;;;4974313;28;20039;-80
2022/01/27 08:07:10;;;;;;;47.13;22.90;;;6.40;99.90;;;;;;4974416;28;20045;-82
2022/01/27 08:09:36;;;;;;;52.00;22.77;;;6.30;99.90;;;;;;4975819;28;20034;-80
2022/01/27 08:12:01;;;;;;;55.83;21.08;;;6.30;99.90;;;;;;4976318;28;20038;-82
2022/01/27 08:14:27;;;;;;;45.47;20.60;;;6.40;99.90;;;;;;4976080;28;20050;-87
2022/01/27 08:16:53;;;;;;;48.45;22.40;;;6.40;99.90;;;;;;4974817;28;20034;-74
2022/01/27 08:19:18;;;;;;;55.17;20.80;;;6.40;99.90;;;;;;4974165;28;20158;-77
2022/01/27 08:21:44;;;;;;;42.88;20.67;;;6.40;99.90;;;;;;4977440;28;20042;-75
2022/01/27 08:24:10;;;;;;;43.95;20.02;;;6.50;99.90;;;;;;4994606;28;20034;-81
2022/01/27 08:26:42;;;;;;;44.28;19.83;;;6.50;99.90;;;;;;4977401;28;20030;-84
2022/01/27 08:29:15;;;;;;;39.33;19.90;;;6.50;99.90;;;;;;4975318;28;20030;-83
2022/01/27 08:31:59;;;;;;;45.40;19.30;;;6.40;99.90;;;;;;4975665;28;20068;-86
2022/01/27 08:34:37;;;;;;;43.30;19.20;;;6.50;99.90;;;;;;4974423;28;20090;-82
2022/01/27 08:37:07;;;;;;;41.28;19.02;;;6.60;99.90;;;;;;4976250;28;20105;-82
2022/01/27 08:39:34;;;;;;;42.22;18.48;;;6.60;99.90;;;;;;4974361;28;20054;-76
2022/01/27 08:42:01;;;;;;;40.58;18.70;;;6.60;99.90;;;;;;4975661;28;20037;-76
2022/01/27 08:44:27;;;;;;;43.17;18.27;;;6.50;99.90;;;;;;4975404;28;20110;-76
2022/01/27 08:46:52;;;;;;;53.20;18.80;;;6.50;99.90;;;;;;4974645;28;20518;-77
2022/01/27 08:49:21;;;;;;;41.92;18.40;;;6.60;99.90;;;;;;4974485;28;20026;-75
2022/01/27 08:51:47;;;;;;;37.40;17.52;;;6.60;99.90;;;;;;4973211;28;20114;-82
2022/01/27 08:54:13;;;;;;;33.95;15.23;;;6.70;99.90;;;;;;4973702;28;20079;-81
2022/01/27 08:56:38;;;;;;;34.35;16.20;;;6.60;99.90;;;;;;4974304;28;20484;-81
2022/01/27 08:59:04;;;;;;;31.60;15.55;;;6.60;99.90;;;;;;4974172;28;20038;-82
2022/01/27 09:01:30;;;;;;;34.72;14.93;;;6.60;99.90;;;;;;4974551;28;20116;-91
2022/01/27 09:03:55;;;;;;;34.95;15.63;;;6.60;99.90;;;;;;4976308;28;20070;-83
2022/01/27 09:06:21;;;;;;;26.77;13.85;;;6.60;99.90;;;;;;4975885;28;20031;-82
2022/01/27 09:08:50;;;;;;;32.53;16.02;;;6.60;99.90;;;;;;4977586;28;20035;-94
2022/01/27 09:11:17;;;;;;;29.27;14.13;;;6.50;99.90;;;;;;4977005;28;20379;-87
2022/01/27 09:13:43;;;;;;;27.13;14.10;;;6.50;99.90;;;;;;4976530;28;20035;-83
2022/01/27 09:16:10;;;;;;;25.73;14.10;;;6.50;99.90;;;;;;4975253;28;20027;-87
2022/01/27 09:18:36;;;;;;;26.95;13.63;;;6.50;99.90;;;;;;4974314;28;20093;-85
2022/01/27 09:21:09;;;;;;;24.92;13.55;;;6.50;99.90;;;;;;4974343;28;20076;-77
2022/01/27 09:23:35;;;;;;;25.08;13.50;;;6.60;99.90;;;;;;4972599;28;20106;-83
2022/01/27 09:26:05;;;;;;;20.80;12.30;;;6.70;99.90;;;;;;4988819;28;20114;-84
2022/01/27 09:28:31;;;;;;;27.73;12.45;;;6.70;99.90;;;;;;4973536;28;20026;-82
2022/01/27 09:30:57;;;;;;;26.67;12.10;;;6.70;99.90;;;;;;4974116;28;20038;-78
2022/01/27 09:33:23;;;;;;;24.40;12.43;;;6.70;99.90;;;;;;4973154;28;20105;-83
2022/01/27 09:35:50;;;;;;;22.90;10.50;;;6.70;99.90;;;;;;4974480;28;20051;-81
2022/01/27 09:38:18;;;;;;;27.13;12.82;;;6.70;99.90;;;;;;4973301;28;20027;-80
2022/01/27 09:40:49;;;;;;;18.90;9.88;;;6.70;99.90;;;;;;4973761;28;20027;-87
2022/01/27 09:43:15;;;;;;;20.52;10.82;;;6.80;99.90;;;;;;4973553;28;20035;-85
2022/01/27 09:45:41;;;;;;;24.83;11.82;;;6.80;99.90;;;;;;4972862;28;20455;-84
2022/01/27 09:48:16;;;;;;;17.73;9.80;;;6.90;99.90;;;;;;4973945;28;20041;-85
2022/01/27 09:50:48;;;;;;;18.65;9.50;;;7.00;99.90;;;;;;4989025;28;20042;-84
2022/01/27 09:53:16;;;;;;;18.08;9.07;;;6.90;99.90;;;;;;4988581;28;20035;-78
2022/01/27 09:55:42;;;;;;;17.58;9.82;;;7.00;99.90;;;;;;4973521;28;20061;-83
2022/01/27 09:58:09;;;;;;;18.75;9.75;;;7.00;99.90;;;;;;4973452;28;20023;-80
2022/01/27 10:00:35;;;;;;;14.07;8.57;;;7.00;99.90;;;;;;4988489;28;20053;-79
2022/01/27 10:03:09;;;;;;;18.83;8.40;;;7.10;99.90;;;;;;4973519;28;20311;-80
2022/01/27 10:05:36;;;;;;;17.65;8.95;;;7.10;99.90;;;;;;4972841;28;20043;-79
2022/01/27 10:08:15;;;;;;;11.70;7.22;;;7.20;99.90;;;;;;4973121;28;20484;-79
2022/01/27 10:10:47;;;;;;;13.52;8.00;;;7.10;99.90;;;;;;4972141;28;20054;-80
2022/01/27 10:13:30;;;;;;;13.25;7.80;;;7.20;99.90;;;;;;4987943;28;20042;-81
2022/01/27 10:15:56;;;;;;;14.57;7.95;;;7.20;99.90;;;;;;4973040;28;20245;-76
2022/01/27 10:18:25;;;;;;;14.95;7.60;;;7.30;99.90;;;;;;4972437;28;20106;-76
2022/01/27 10:21:04;;;;;;;11.80;7.88;;;7.30;99.90;;;;;;4971562;28;20049;-76
2022/01/27 10:23:33;;;;;;;12.55;6.07;;;7.30;99.90;;;;;;4972102;28;20051;-78
2022/01/27 10:26:12;;;;;;;11.82;7.55;;;7.30;99.90;;;;;;4972704;28;20037;-85
2022/01/27 10:28:48;;;;;;;14.68;7.43;;;7.20;99.90;;;;;;4975638;28;20093;-82
2022/01/27 10:31:19;;;;;;;11.35;7.05;;;7.30;99.90;;;;;;4977232;28;20027;-91
2022/01/27 10:34:01;;;;;;;13.52;7.30;;;7.30;99.90;;;;;;4977229;28;20042;-84
2022/01/27 10:36:30;;;;;;;12.15;6.68;;;7.40;99.90;;;;;;4976232;28;20461;-85
2022/01/27 10:39:05;;;;;;;9.98;5.88;;;7.50;99.90;;;;;;4975615;28;20109;-85
2022/01/27 10:41:33;;;;;;;10.35;5.63;;;7.50;99.90;;;;;;4976851;28;20035;-85
2022/01/27 10:44:11;;;;;;;11.20;6.32;;;7.50;99.90;;;;;;4976710;28;20628;-83
2022/01/27 10:46:45;;;;;;;9.60;5.82;;;7.60;99.90;;;;;;4977487;28;20058;-87
2022/01/27 10:49:23;;;;;;;9.35;5.57;;;7.50;99.90;;;;;;4975518;28;20409;-83
2022/01/27 10:51:52;;;;;;;;;;;7.60;99.90;;;;;;4977500;28;20042;-85
2022/01/27 10:57:13;;;;;;;12.10;6.55;;;7.60;99.90;;;;;;4995367;28;20074;-83
2022/01/27 10:59:39;;;;;;;12.43;5.82;;;7.60;99.90;;;;;;4976376;28;20038;-84
2022/01/27 11:02:08;;;;;;;9.77;5.78;;;7.70;99.90;;;;;;4975353;28;20031;-80
2022/01/27 11:04:37;;;;;;;8.70;5.40;;;7.70;99.90;;;;;;4975435;28;20043;-80
2022/01/27 11:07:05;;;;;;;17.90;6.93;;;7.80;99.90;;;;;;4975393;28;20492;-82
2022/01/27 11:09:38;;;;;;;9.93;5.75;;;7.80;99.90;;;;;;4975097;28;20412;-83
2022/01/27 11:12:12;;;;;;;10.98;5.90;;;7.70;99.90;;;;;;4975787;28;20049;-82
2022/01/27 11:14:39;;;;;;;10.20;5.82;;;7.70;99.90;;;;;;4975307;28;20046;-83
2022/01/27 11:17:06;;;;;;;13.15;5.82;;;7.90;99.90;;;;;;4989693;28;20424;-81
2022/01/27 11:27:28;;;;;;;11.20;6.22;;;7.90;99.90;;;;;;4975339;28;20035;-82
2022/01/27 11:30:17;;;;;;;12.60;6.78;;;7.90;99.90;;;;;;4975521;28;20022;-80
2022/01/27 11:32:59;;;;;;;13.68;6.40;;;7.80;99.90;;;;;;4976441;28;20034;-90
2022/01/27 11:35:26;;;;;;;13.68;5.75;;;7.90;99.90;;;;;;4974698;28;20080;-75
2022/01/27 11:37:54;;;;;;;11.95;6.47;;;8.00;99.90;;;;;;4974489;28;20138;-75
2022/01/27 11:40:23;;;;;;;11.35;6.80;;;7.90;99.90;;;;;;4974737;28;20039;-78
2022/01/27 11:42:54;;;;;;;16.55;7.90;;;7.90;99.90;;;;;;4974638;28;20030;-77
2022/01/27 11:45:22;;;;;;;12.45;7.15;;;7.90;99.90;;;;;;4974587;28;20037;-84
2022/01/27 11:48:00;;;;;;;12.10;7.03;;;7.80;99.90;;;;;;4975271;28;20026;-80
2022/01/27 11:50:33;;;;;;;11.88;6.57;;;7.90;99.90;;;;;;4974502;28;20122;-78
2022/01/27 11:53:01;;;;;;;14.07;6.85;;;7.80;99.90;;;;;;4974563;28;20027;-78
2022/01/27 11:55:26;;;;;;;14.07;6.68;;;7.90;99.90;;;;;;4974576;28;20041;-77
2022/01/27 11:57:52;;;;;;;14.10;6.93;;;8.00;99.90;;;;;;4974382;28;20110;-77
2022/01/27 12:00:21;;;;;;;10.52;6.10;;;8.00;99.90;;;;;;4975070;28;20023;-84
2022/01/27 12:03:01;;;;;;;12.98;7.57;;;8.00;99.90;;;;;;4975207;28;20031;-80
2022/01/27 12:05:32;;;;;;;13.15;7.07;;;8.00;99.90;;;;;;4975519;28;20113;-81
2022/01/27 12:08:13;;;;;;;11.00;7.00;;;8.00;99.90;;;;;;4989889;28;20356;-82
2022/01/27 12:10:46;;;;;;;10.95;5.85;;;8.00;99.90;;;;;;4985133;28;20051;-82
2022/01/27 12:13:33;;;;;;;12.23;6.63;;;8.00;99.90;;;;;;4974187;28;20043;-85
2022/01/27 12:19:03;;;;;;;15.10;7.03;;;7.90;99.90;;;;;;4976539;28;20518;-84
2022/01/27 12:21:35;;;;;;;11.45;6.30;;;8.00;99.90;;;;;;4976064;28;20042;-83
2022/01/27 12:24:22;;;;;;;10.68;6.45;;;8.00;99.90;;;;;;4975245;28;20023;-82
2022/01/27 12:26:59;;;;;;;15.10;6.57;;;8.00;99.90;;;;;;4974915;28;20092;-81
2022/01/27 12:29:28;;;;;;;16.13;7.10;;;8.00;99.90;;;;;;4990176;28;20031;-79
2022/01/27 12:31:57;;;;;;;15.20;6.82;;;8.00;99.90;;;;;;4975701;28;20690;-82
2022/01/27 12:34:23;;;;;;;14.07;7.60;;;8.00;99.90;;;;;;4975264;28;20050;-80
2022/01/27 12:36:53;;;;;;;13.45;7.07;;;8.10;99.90;;;;;;4975648;28;20083;-81
2022/01/27 12:39:23;;;;;;;18.83;7.45;;;8.10;99.90;;;;;;4975581;28;20106;-80
2022/01/27 12:41:50;;;;;;;14.57;7.00;;;8.10;99.90;;;;;;4976536;28;20062;-85
2022/01/27 12:44:16;;;;;;;15.40;7.50;;;8.20;99.90;;;;;;4976275;28;20030;-83
2022/01/27 12:47:05;;;;;;;19.52;7.22;;;8.20;99.90;;;;;;4974078;28;20107;-80
2022/01/27 12:50:01;;;;;;;12.18;6.97;;;8.20;99.90;;;;;;4973946;28;20490;-81
2022/01/27 12:52:29;;;;;;;14.05;8.10;;;8.30;99.90;;;;;;4974331;28;20026;-79
2022/01/27 12:54:55;;;;;;;11.75;7.03;;;8.40;99.90;;;;;;4974985;28;20464;-77
2022/01/27 12:57:25;;;;;;;18.00;8.20;;;8.30;99.90;;;;;;4988840;28;20023;-79
2022/01/27 12:59:53;;;;;;;19.33;7.45;;;8.30;99.90;;;;;;4974492;28;20019;-80
2022/01/27 13:02:20;;;;;;;17.73;7.97;;;8.40;99.90;;;;;;4973526;28;20031;-77
2022/01/27 13:04:49;;;;;;;15.45;6.88;;;8.40;99.90;;;;;;4974272;28;20361;-78
2022/01/27 13:07:15;;;;;;;12.63;7.30;;;8.50;99.90;;;;;;4973893;28;20441;-77
2022/01/27 13:09:41;;;;;;;20.58;7.82;;;8.50;99.90;;;;;;4972601;28;20365;-76
2022/01/27 13:12:19;;;;;;;18.45;7.75;;;8.50;99.90;;;;;;4973245;28;20050;-77
2022/01/27 13:17:54;;;;;;;16.02;7.80;;;8.60;99.90;;;;;;4992604;28;20042;-79
2022/01/27 13:22:59;;;;;;;12.07;7.43;;;8.70;99.90;;;;;;4993771;28;20502;-78
2022/01/27 13:25:37;;;;;;;18.45;7.72;;;8.60;99.90;;;;;;4989098;28;20097;-76
2022/01/27 13:28:07;;;;;;;;;;;8.70;99.90;;;;;;4974543;28;20026;-78
2022/01/27 13:30:35;;;;;;;19.70;7.70;;;8.70;99.90;;;;;;4974091;28;19916;-77
2022/01/27 13:33:02;;;;;;;21.92;11.38;;;8.70;99.90;;;;;;4974936;28;20110;-76
2022/01/27 13:35:27;;;;;;;23.35;9.57;;;8.70;99.90;;;;;;4989991;28;20507;-76